Terminal Aerodrome Forecast
Issued by NWS

Home | Current Version | Previous Version | Text Only | Print | Product List | Glossary On
Versions: 1 2 3 4 5 6 7 8 9 10 11 12 13 14 15 16
000
FTUS45 KRIW 220500
TAFCPR
TAF
KCPR 220523Z 2206/2306 05008KT P6SM FEW100
     FM221000 24008KT P6SM SKC
     FM221800 03006KT P6SM SCT080=

USA.gov is the U.S. government's official web portal to all federal, state and local government web resources and services.